Biloxi, MS

1:10 AM CST on December 28, 2014 (GMT -0600)
Keesler Air Force Base | Change Station
CLOSE
Current Station
Airport
Location: Biloxi,
Elevation: 33 ft
Nearby Weather Stations
Active Advisory: Areal Flood Watch

Elev 33 ft 30.41 °N, 88.92 °W | Updated 12 minutes ago

Fog
Fog
64 °F
Feels Like 64 °F
N
5
Wind Variable Wind from South

Today
High -- | Low -- °F
--% Chance of Precip.
Yesterday
High -- | Low -- °F
Precip. -- in
6:51 AM 5:03 PM
Waxing Crescent, 45% visible
Pressure 30.06 in
Visibility 0.5 miles
Clouds Clear
Dew Point 64 °F
Humidity 100%
Rainfall 0.00 in
Snow Depth Not available.
UV 0 out of 12
Pollen .60 out of 12
Air Quality Not available.
Flu Activity Not available.
METAR KBIX 280658Z AUTO 17004KT 1/2SM R03/1000FT FG CLR 18/18 A3005 RMK AO2 SLP179 T01780178 $

More Conditions Fewer Conditions

Pressure 30.06 in
Visibility 0.5 miles
Clouds Clear
Dew Point 64 °F
Humidity 100%
Rainfall 0.00 in
Snow Depth Not available.
UV 0 out of 12
Pollen .60 out of 12
Air Quality Not available.
Flu Activity Not available.
METAR KBIX 280658Z AUTO 17004KT 1/2SM R03/1000FT FG CLR 18/18 A3005 RMK AO2 SLP179 T01780178 $

More Conditions Fewer Conditions

10-Day Weather Forecast

Almanac

Astronomy

Dec. 28, 2014 Rise Set
Actual Time
Civil Twilight
Nautical Twilight
Astronomical Twilight
Moon
Length of Visible Light
Length of Day
Tomorrow will be .
, % of the Moon is Illuminated

Today's Extremes

State Highs State Lows

Community

WunderPhotos

Upload Photos

1,781,209 photos uploaded!

WunderBlogs® & News

Nearby

Air Quality

  Air Quality AQ Index Pollutant
Not available.

Snow Depth

Station Depth Elevation

Earthquake Activity

City Distance Mag. Time & Date
Minimum magnitude displayed is 2.5.

Coastal Water Temperatures

Place Temperature

Nearby Weather Stations